Wetterdaten: aktuell Mittwoch, 21.02.2018 18:10
Datum Zeit Wetterhtte Helligkeit Boden -10cm Boden 5cm Temp S Luftfeuchte Luftdruck Regen Wind Richtung Richtung Sonnenschein UV Taupunkt Windchill Windben
21.02.2018 18:10 1,0 C -22,1 C 0,7 C 1,7 C 0,0 C 69 % 1023,1 hPa 0,0 l/m 7,4 km/h N-NO 26 0 min 0,0 UV-I -4,0 C -0,0 C 7,4 km/h
21.02.2018 18:05 1,0 C -22,1 C 0,7 C 1,8 C 0,0 C 69 % 1023,1 hPa 0,0 l/m 6,9 km/h N-NO 26 0 min 0,0 UV-I -4,0 C 0,5 C 10,1 km/h
21.02.2018 18:00 0,9 C -22,1 C 0,7 C 1,7 C -0,1 C 68 % 1023,1 hPa 0,0 l/m 7,7 km/h N-NO 26 0 min 0,0 UV-I -4,3 C -0,4 C 10,1 km/h
21.02.2018 17:55 1,0 C -21,8 C 0,7 C 1,8 C 0,0 C 68 % 1023,1 hPa 0,0 l/m 7,7 km/h N-NO 26 0 min 0,0 UV-I -4,2 C -0,3 C 6,4 km/h
21.02.2018 17:50 1,0 C -21,8 C 0,7 C 1,7 C 0,0 C 68 % 1023,2 hPa 0,0 l/m 7,4 km/h NO 49 0 min 0,2 UV-I -4,2 C -0,0 C 8,0 km/h
21.02.2018 17:45 1,1 C -21,6 C 0,7 C 1,9 C 0,0 C 68 % 1023,2 hPa 0,0 l/m 7,2 km/h N-NW 341 0 min 0,2 UV-I -4,1 C 0,3 C 0,0 km/h
21.02.2018 17:40 1,1 C -20,8 C 0,7 C 1,9 C 0,2 C 68 % 1023,2 hPa 0,0 l/m 7,7 km/h NO 49 0 min 0,2 UV-I -4,1 C -0,2 C 10,9 km/h
21.02.2018 17:35 1,2 C -20,3 C 0,7 C 1,8 C 0,2 C 67 % 1023,2 hPa 0,0 l/m 7,4 km/h N-NO 26 0 min 0,2 UV-I -4,2 C 0,2 C 4,5 km/h
21.02.2018 17:30 1,1 C -19,8 C 0,7 C 1,9 C 0,4 C 67 % 1023,4 hPa 0,0 l/m 6,9 km/h N-NO 26 0 min 0,2 UV-I -4,3 C 0,6 C 8,2 km/h
21.02.2018 17:25 1,2 C -19,2 C 0,7 C 1,9 C 0,4 C 67 % 1023,4 hPa 0,0 l/m 6,9 km/h NO 49 0 min 0,2 UV-I -4,2 C 0,7 C 15,7 km/h
21.02.2018 17:20 1,2 C -18,7 C 0,7 C 1,9 C 0,5 C 67 % 1023,4 hPa 0,0 l/m 7,2 km/h NO 49 0 min 0,2 UV-I -4,2 C 0,4 C 5,8 km/h
21.02.2018 17:15 1,2 C -18,1 C 0,7 C 1,9 C 0,5 C 67 % 1023,4 hPa 0,0 l/m 8,0 km/h N-NO 26 0 min 0,2 UV-I -4,2 C -0,4 C 7,2 km/h
21.02.2018 17:10 1,4 C -18,1 C 0,7 C 1,8 C 0,8 C 66 % 1023,4 hPa 0,0 l/m 8,5 km/h O-NO 71 0 min 0,2 UV-I -4,2 C -0,6 C 8,8 km/h
21.02.2018 17:05 1,4 C -18,4 C 0,7 C 1,8 C 0,8 C 66 % 1023,4 hPa 0,0 l/m 10,4 km/h O-NO 71 0 min 0,2 UV-I -4,2 C -2,2 C 10,1 km/h
21.02.2018 17:00 1,4 C -16,7 C 0,7 C 1,8 C 0,9 C 66 % 1023,4 hPa 0,0 l/m 10,1 km/h N-NO 26 0 min 0,2 UV-I -4,2 C -2,0 C 9,3 km/h
21.02.2018 16:55 1,3 C -14,7 C 0,7 C 1,9 C 0,9 C 67 % 1023,4 hPa 0,0 l/m 8,5 km/h N-NO 26 0 min 0,2 UV-I -4,1 C -0,7 C 10,1 km/h
21.02.2018 16:50 1,4 C -12,0 C 0,7 C 1,9 C 1,2 C 67 % 1023,1 hPa 0,0 l/m 9,8 km/h NO 49 0 min 0,2 UV-I -4,0 C -1,7 C 5,3 km/h
21.02.2018 16:45 1,4 C -11,1 C 0,7 C 1,9 C 1,3 C 67 % 1023,1 hPa 0,0 l/m 10,6 km/h NO 49 0 min 0,2 UV-I -4,0 C -2,4 C 14,1 km/h
21.02.2018 16:40 1,4 C -10,4 C 0,7 C 1,9 C 1,5 C 67 % 1023,1 hPa 0,0 l/m 9,0 km/h N-NO 26 0 min 0,2 UV-I -4,0 C -1,1 C 9,3 km/h
21.02.2018 16:35 1,6 C -11,8 C 0,7 C 2,0 C 1,7 C 67 % 1023,1 hPa 0,0 l/m 9,8 km/h N-NO 26 0 min 0,2 UV-I -3,9 C -1,5 C 6,9 km/h
21.02.2018 16:30 1,6 C -10,2 C 0,7 C 2,0 C 2,2 C 66 % 1023,0 hPa 0,0 l/m 10,4 km/h N-NO 26 0 min 0,2 UV-I -4,1 C -2,0 C 15,9 km/h
21.02.2018 16:25 1,6 C -7,9 C 0,7 C 2,0 C 2,5 C 66 % 1023,0 hPa 0,0 l/m 10,9 km/h N-NO 26 0 min 0,2 UV-I -4,1 C -2,4 C 9,8 km/h
21.02.2018 16:20 1,8 C -1,2 C 0,7 C 2,0 C 2,7 C 66 % 1023,0 hPa 0,0 l/m 13,5 km/h NO 49 0 min 0,3 UV-I -3,9 C -3,9 C 11,4 km/h
21.02.2018 16:15 1,8 C 1,0 C 0,7 C 2,0 C 3,0 C 66 % 1023,0 hPa 0,0 l/m 13,8 km/h NO 49 0 min 0,3 UV-I -3,9 C -4,1 C 10,1 km/h
21.02.2018 16:10 1,5 C 4,1 C 0,7 C 1,9 C 3,7 C 66 % 1022,8 hPa 0,0 l/m 12,7 km/h O-NO 71 0 min 0,4 UV-I -4,1 C -3,7 C 16,5 km/h
21.02.2018 16:05 1,5 C 3,4 C 0,7 C 1,9 C 4,4 C 66 % 1022,8 hPa 0,0 l/m 11,2 km/h NO 49 0 min 0,4 UV-I -4,1 C -2,7 C 9,3 km/h
21.02.2018 16:00 1,5 C 32,2 C 0,7 C 1,9 C 5,7 C 66 % 1022,8 hPa 0,0 l/m 11,7 km/h O-NO 71 5 min 0,4 UV-I -4,1 C -3,1 C 27,4 km/h
21.02.2018 15:55 1,4 C 30,8 C 0,7 C 1,9 C 5,5 C 66 % 1022,8 hPa 0,0 l/m 11,4 km/h NO 49 5 min 0,4 UV-I -4,2 C -3,0 C 7,7 km/h
21.02.2018 15:50 1,4 C 30,7 C 0,7 C 1,9 C 5,2 C 67 % 1023,0 hPa 0,0 l/m 11,7 km/h NO 49 5 min 0,4 UV-I -4,0 C -3,2 C 10,9 km/h
21.02.2018 15:45 1,4 C 31,6 C 0,7 C 1,8 C 4,4 C 67 % 1023,0 hPa 0,0 l/m 13,5 km/h N-NO 26 5 min 0,4 UV-I -4,0 C -4,4 C 15,1 km/h
21.02.2018 15:40 1,6 C 3,4 C 0,7 C 2,0 C 4,6 C 67 % 1023,0 hPa 0,0 l/m 15,4 km/h N-NO 26 0 min 0,5 UV-I -3,9 C -5,3 C 16,5 km/h
21.02.2018 15:35 1,7 C 4,5 C 0,7 C 2,0 C 5,6 C 67 % 1023,0 hPa 0,0 l/m 11,4 km/h N-NO 26 0 min 0,5 UV-I -3,8 C -2,6 C 31,9 km/h
21.02.2018 15:30 1,7 C 16,2 C 0,7 C 2,0 C 8,0 C 68 % 1023,1 hPa 0,0 l/m 6,6 km/h O-NO 71 0 min 0,5 UV-I -3,6 C 1,5 C 13,8 km/h
21.02.2018 15:25 1,8 C 36,5 C 0,7 C 2,1 C 7,7 C 68 % 1023,1 hPa 0,0 l/m 8,2 km/h O-NO 71 5 min 0,5 UV-I -3,5 C 0,1 C 4,8 km/h
21.02.2018 15:20 1,5 C 37,3 C 0,7 C 1,9 C 6,8 C 68 % 1023,1 hPa 0,0 l/m 10,6 km/h N-NO 26 5 min 0,5 UV-I -3,7 C -2,3 C 6,1 km/h
21.02.2018 15:15 1,5 C 36,4 C 0,7 C 1,9 C 6,2 C 69 % 1023,1 hPa 0,0 l/m 11,9 km/h N-NW 341 5 min 0,5 UV-I -3,6 C -3,2 C 8,0 km/h
21.02.2018 15:10 1,5 C 31,1 C 0,7 C 1,9 C 5,2 C 69 % 1023,1 hPa 0,0 l/m 12,7 km/h N-NO 26 5 min 0,6 UV-I -3,6 C -3,7 C 13,0 km/h
21.02.2018 15:05 1,5 C 10,5 C 0,7 C 2,0 C 5,7 C 69 % 1023,1 hPa 0,0 l/m 12,7 km/h N 4 0 min 0,6 UV-I -3,6 C -3,7 C 13,5 km/h
21.02.2018 15:00 1,5 C 25,2 C 0,7 C 2,1 C 7,4 C 70 % 1023,1 hPa 0,0 l/m 10,4 km/h N-NO 26 0 min 0,6 UV-I -3,4 C -2,1 C 18,1 km/h
21.02.2018 14:55 1,5 C 29,0 C 0,7 C 2,0 C 7,3 C 71 % 1023,1 hPa 0,0 l/m 9,0 km/h N 4 5 min 0,6 UV-I -3,2 C -1,0 C 21,0 km/h
21.02.2018 14:50 1,4 C 40,3 C 0,7 C 1,9 C 5,3 C 70 % 1023,2 hPa 0,0 l/m 10,9 km/h NO 49 5 min 0,6 UV-I -3,5 C -2,6 C 11,4 km/h
_ Min-Zeit 08:05 06:35 18:10 08:20 07:05 17:10 01:46 - 10:15 - - - 18:10 08:05 08:05 17:45
Minimum _ -6,9 C -22,8 C 0,7 C -3,9 C -9,0 C 66 % 1020,9 hPa - 0,0 km/h - - - 0,0 UV-I -8,3 C -6,9 C 0,0 km/h
_ Max-Zeit 16:20 13:45 01:31 15:25 12:15 10:35 11:10 18:10 14:35 - - 16:00 12:20 13:00 15:30 15:35
Maximum _ 1,8 C 43,0 C 1,3 C 2,1 C 11,9 C 91 % 1024,8 hPa 0,0 l/m 16,2 km/h
N-NO
- - 5 min 1,3 UV-I -3,0 C 1,5 C 31,9 km/h
N-NO
Durchschnitt _ -3,0 C -3,8 C 0,9 C -1,1 C -2,0 C 83 % 1022,8 hPa #0,0 l/m 4,0 km/h N-NO - #2:45 h 0,6 UV-I -5,5 C -4,1 C 5,1 km/h